Portada
METAR-TAF:

METAR-TAF

Aeroports :

Oral, Kazakhstan

latitud: 51-15N, longitud: 051-17E, altitud: 36 m

Observació

L'informe es va fer fa 27 minuts, a les 01:30 UTC
Vent 4 kt del Nord/Nord-Est
Temperatura -19°C
Humitat 84%
Pressió 1045 hPa
Visibilitat 10 km o més
Núvols disperses a una alçada de 3300 ft

METAR: UARR 060130Z 03002MPS 9999 SCT033 M19/M21 Q1045 R04/810360 NOSIG RMK QFE780/1041

Hora: 06:57 (01:57 UTC)

Pronòstic

L'informe es va fer fa 2 hores i 58 minuts, a les 22:59 UTC
Pronòstic vàlid del 06 a les 00 UTC al 06 a les 09 UTC
Vent 8 kt del Nord/Nord-Est
Visibilitat: 3100 m
Escasses núvols a una alçada de 400 ft
Cel ennuvolat a una alçada de 1100 ft
boirina
Temporalment
l' 06 a les 00 UTC al 06 a les 06 UTC
Visibilitat: 0400 m
a una alçada de 200 ft
boira gebradora

TAF: UARR 052259Z 0600/0609 02004MPS 3100 BR FEW004 BKN011 TEMPO 0600/0606 0400 FZFG VV002

Observacions i pronòstics meteorològics de més de 4000 aeroports (METAR i TAF).

Les estacions disponibles són els punts grocs i vermells al mapa.

Posi el ratolí al punt desitjat per veure el nom de l'estació.

Feu clic per veure les observacions i els pronòstics meteorològics.

Per canviar el mapa: feu clic els botons verds amb una creu de color negre per apropar; al botó verd amb un guió per allunyar la imatge; o en les fletxes verdes per a mapes adjacents.


METAR-TAF: